createdAt,value
2022-11-30T00:01:44.024Z,5.07
2022-11-30T00:04:11.377Z,4.95
2022-11-30T00:06:42.825Z,3.43
2022-11-30T00:09:10.010Z,3.97
2022-11-30T00:11:37.077Z,5.00
2022-11-30T00:14:04.701Z,3.60
2022-11-30T00:16:31.811Z,3.53
2022-11-30T00:18:59.129Z,4.67
2022-11-30T00:21:26.316Z,3.27
2022-11-30T00:23:53.553Z,3.83
2022-11-30T00:26:22.989Z,3.07
2022-11-30T00:28:50.913Z,3.43
2022-11-30T00:31:19.855Z,4.23
2022-11-30T00:33:47.296Z,3.00
2022-11-30T00:36:19.681Z,3.10
2022-11-30T00:38:47.101Z,3.27
2022-11-30T00:41:14.898Z,2.67
2022-11-30T00:43:42.643Z,2.30
2022-11-30T00:46:10.185Z,2.27
2022-11-30T00:48:41.655Z,3.77
2022-11-30T00:51:10.734Z,3.25
2022-11-30T00:53:38.030Z,2.60
2022-11-30T00:56:06.301Z,2.37
2022-11-30T00:58:33.602Z,2.55
2022-11-30T01:01:01.429Z,2.58
2022-11-30T01:03:28.783Z,3.53
2022-11-30T01:06:01.087Z,2.47
2022-11-30T01:08:28.548Z,3.00
2022-11-30T01:10:57.848Z,2.20
2022-11-30T01:13:25.100Z,1.97
2022-11-30T01:15:52.256Z,3.13
2022-11-30T01:18:19.529Z,3.03
2022-11-30T01:20:46.772Z,2.47
2022-11-30T01:23:13.965Z,2.73
2022-11-30T01:25:41.161Z,3.43
2022-11-30T01:28:10.581Z,4.00
2022-11-30T01:30:37.981Z,4.07
2022-11-30T01:33:06.153Z,2.90
2022-11-30T01:35:33.263Z,3.55
2022-11-30T01:38:00.464Z,3.53
2022-11-30T01:40:27.587Z,2.80
2022-11-30T01:42:55.604Z,2.17
2022-11-30T01:45:22.863Z,3.10
2022-11-30T01:47:55.156Z,2.33
2022-11-30T01:50:28.690Z,2.40
2022-11-30T01:52:57.796Z,2.30
2022-11-30T01:55:42.482Z,2.47
2022-11-30T01:58:13.887Z,2.30
2022-11-30T02:00:47.084Z,2.90
2022-11-30T02:03:29.409Z,2.10
2022-11-30T02:05:57.518Z,2.10
2022-11-30T02:08:25.172Z,1.90
2022-11-30T02:10:55.683Z,1.60
2022-11-30T02:14:01.499Z,1.33
2022-11-30T02:16:41.228Z,1.30
2022-11-30T02:19:14.756Z,1.48
2022-11-30T02:21:57.818Z,0.70
2022-11-30T02:24:48.165Z,1.10
2022-11-30T02:27:28.628Z,1.55
2022-11-30T02:30:14.095Z,1.17
2022-11-30T02:32:56.383Z,1.10
2022-11-30T02:35:30.060Z,0.90
2022-11-30T02:37:58.281Z,1.40
2022-11-30T02:40:25.842Z,2.08
2022-11-30T02:42:54.804Z,2.08
2022-11-30T02:45:29.523Z,1.90
2022-11-30T02:48:02.596Z,1.73
2022-11-30T02:50:37.543Z,2.22
2022-11-30T02:53:05.246Z,1.83
2022-11-30T02:55:32.557Z,1.42
2022-11-30T02:57:59.810Z,1.60
2022-11-30T03:00:27.044Z,1.55
2022-11-30T03:02:55.127Z,1.65
2022-11-30T03:05:22.410Z,1.70
2022-11-30T03:07:49.537Z,1.60
2022-11-30T03:10:17.126Z,1.75
2022-11-30T03:12:44.291Z,2.85
2022-11-30T03:15:12.001Z,2.80
2022-11-30T03:17:39.105Z,3.33
2022-11-30T03:20:07.051Z,2.85
2022-11-30T03:22:34.153Z,1.67
2022-11-30T03:25:01.373Z,1.80
2022-11-30T03:27:28.480Z,1.60
2022-11-30T03:29:55.802Z,1.30
2022-11-30T03:32:22.959Z,1.27
2022-11-30T03:34:50.158Z,0.95
2022-11-30T03:37:17.422Z,1.08
2022-11-30T03:39:44.531Z,1.10
2022-11-30T03:42:11.724Z,1.00
2022-11-30T03:44:38.912Z,1.25
2022-11-30T03:47:06.473Z,1.40
2022-11-30T03:49:33.639Z,1.20
2022-11-30T03:52:00.905Z,1.10
2022-11-30T03:54:28.037Z,1.30
2022-11-30T03:56:55.158Z,1.25
2022-11-30T03:59:22.281Z,1.20
2022-11-30T04:01:49.459Z,1.08
2022-11-30T04:04:16.645Z,1.13
2022-11-30T04:06:43.733Z,0.90
2022-11-30T04:09:11.014Z,1.52
2022-11-30T04:11:38.273Z,1.15
2022-11-30T04:14:05.551Z,1.17
2022-11-30T04:16:32.661Z,1.05
2022-11-30T04:19:00.021Z,1.10
2022-11-30T04:21:27.310Z,1.00
2022-11-30T04:23:54.574Z,1.73
2022-11-30T04:26:21.694Z,0.90
2022-11-30T04:28:48.843Z,0.70
2022-11-30T04:31:16.092Z,1.83
2022-11-30T04:33:43.459Z,2.10
2022-11-30T04:36:19.025Z,1.83
2022-11-30T04:38:47.338Z,1.95
2022-11-30T04:41:14.480Z,1.85
2022-11-30T04:43:41.663Z,1.73
2022-11-30T04:46:08.961Z,1.30
2022-11-30T04:48:37.231Z,2.40
2022-11-30T04:51:06.646Z,2.28
2022-11-30T04:53:38.404Z,1.52
2022-11-30T04:56:07.714Z,1.95
2022-11-30T04:58:35.324Z,1.35
2022-11-30T05:01:02.414Z,1.67
2022-11-30T05:03:29.560Z,1.60
2022-11-30T05:05:56.737Z,1.75
2022-11-30T05:08:24.577Z,2.28
2022-11-30T05:10:53.556Z,1.50
2022-11-30T05:13:22.068Z,1.50
2022-11-30T05:15:49.219Z,1.75
2022-11-30T05:18:16.716Z,1.42
2022-11-30T05:20:48.750Z,1.40
2022-11-30T05:23:17.027Z,1.73
2022-11-30T05:25:44.552Z,1.73
2022-11-30T05:28:12.695Z,1.63
2022-11-30T05:30:41.268Z,2.60
2022-11-30T05:33:09.207Z,2.00
2022-11-30T05:38:18.462Z,2.00
2022-11-30T05:40:45.660Z,2.00
2022-11-30T05:43:13.071Z,2.10
2022-11-30T05:45:40.243Z,1.80
2022-11-30T05:48:07.633Z,2.10
2022-11-30T05:50:34.827Z,2.00
2022-11-30T05:53:02.162Z,1.13
2022-11-30T05:55:29.792Z,1.98
2022-11-30T05:57:56.956Z,1.83
2022-11-30T06:00:24.142Z,1.92
2022-11-30T06:02:59.433Z,1.17
2022-11-30T06:05:27.571Z,1.23
2022-11-30T06:07:55.761Z,1.50
2022-11-30T06:10:25.433Z,1.60
2022-11-30T06:12:53.447Z,1.48
2022-11-30T06:15:20.753Z,1.90
2022-11-30T06:17:48.073Z,1.65
2022-11-30T06:20:15.249Z,1.58
2022-11-30T06:22:45.549Z,2.10
2022-11-30T06:25:12.830Z,1.60
2022-11-30T06:27:39.952Z,1.65
2022-11-30T06:30:07.982Z,2.22
2022-11-30T06:32:35.206Z,1.88
2022-11-30T06:35:02.364Z,1.92
2022-11-30T06:37:30.018Z,1.30
2022-11-30T06:40:12.543Z,1.58
2022-11-30T06:42:40.337Z,1.30
2022-11-30T06:45:08.325Z,1.80
2022-11-30T06:47:35.955Z,1.58
2022-11-30T06:50:03.653Z,1.85
2022-11-30T06:52:32.063Z,2.33
2022-11-30T06:54:59.614Z,1.55
2022-11-30T06:57:28.427Z,1.83
2022-11-30T06:59:56.321Z,1.38
2022-11-30T07:02:24.347Z,1.63
2022-11-30T07:04:51.547Z,1.83
2022-11-30T07:07:19.197Z,1.67
2022-11-30T07:09:46.362Z,1.50
2022-11-30T07:12:13.715Z,1.73
2022-11-30T07:14:40.865Z,2.05
2022-11-30T07:17:08.002Z,1.17
2022-11-30T07:19:35.411Z,1.75
2022-11-30T07:22:03.346Z,1.60
2022-11-30T07:24:49.190Z,1.40
2022-11-30T07:27:16.583Z,1.55
2022-11-30T07:29:43.715Z,2.20
2022-11-30T07:32:10.883Z,1.90
2022-11-30T07:34:38.153Z,1.42
2022-11-30T07:37:05.294Z,1.80
2022-11-30T07:39:32.527Z,2.13
2022-11-30T07:41:59.730Z,1.80
2022-11-30T07:44:28.243Z,2.40
2022-11-30T07:46:55.545Z,1.92
2022-11-30T07:49:22.982Z,1.95
2022-11-30T07:51:50.310Z,1.70
2022-11-30T07:54:17.573Z,1.85
2022-11-30T07:56:44.937Z,1.30
2022-11-30T07:59:13.706Z,1.95
2022-11-30T08:01:40.972Z,2.15
2022-11-30T08:04:08.671Z,1.67
2022-11-30T08:06:35.844Z,1.50
2022-11-30T08:09:04.430Z,1.52
2022-11-30T08:11:34.911Z,1.45
2022-11-30T08:14:03.283Z,1.30
2022-11-30T08:16:34.743Z,1.80
2022-11-30T08:19:01.929Z,1.70
2022-11-30T08:21:29.081Z,1.25
2022-11-30T08:23:57.298Z,1.33
2022-11-30T08:26:30.958Z,1.52
2022-11-30T08:28:59.752Z,1.80
2022-11-30T08:31:33.048Z,1.25
2022-11-30T08:34:05.634Z,1.40
2022-11-30T08:36:34.305Z,1.30
2022-11-30T08:39:04.542Z,1.77
2022-11-30T08:41:32.974Z,1.88
2022-11-30T08:44:00.179Z,1.80
2022-11-30T08:46:50.387Z,2.10
2022-11-30T08:49:24.185Z,1.80
2022-11-30T08:54:46.408Z,1.90
2022-11-30T08:57:16.181Z,1.63
2022-11-30T08:59:43.834Z,1.30
2022-11-30T09:02:12.430Z,1.40
2022-11-30T09:05:30.119Z,1.50
2022-11-30T09:07:58.029Z,1.70
2022-11-30T09:10:25.302Z,1.83
2022-11-30T09:12:52.542Z,1.38
2022-11-30T09:15:19.877Z,1.80
2022-11-30T09:17:47.144Z,1.70
2022-11-30T09:20:14.534Z,1.50
2022-11-30T09:22:42.271Z,1.33
2022-11-30T09:25:38.418Z,1.20
2022-11-30T09:28:09.359Z,1.60
2022-11-30T09:30:39.679Z,1.48
2022-11-30T09:33:06.925Z,1.90
2022-11-30T09:35:34.392Z,1.15
2022-11-30T09:38:01.594Z,1.63
2022-11-30T09:40:34.011Z,2.17
2022-11-30T09:43:14.175Z,1.70
2022-11-30T09:45:49.279Z,2.55
2022-11-30T09:48:38.638Z,2.42
2022-11-30T09:51:12.177Z,2.20
2022-11-30T09:53:43.921Z,1.80
2022-11-30T09:56:43.998Z,1.95
2022-11-30T09:59:29.723Z,2.03
2022-11-30T10:01:57.474Z,1.95
2022-11-30T10:04:27.716Z,1.85
2022-11-30T10:07:16.599Z,2.17
2022-11-30T10:10:30.284Z,2.00
2022-11-30T10:13:09.361Z,1.98
2022-11-30T10:16:00.211Z,2.35
2022-11-30T10:18:30.554Z,2.20
2022-11-30T10:21:35.934Z,2.50
2022-11-30T10:24:22.979Z,1.67
2022-11-30T10:26:58.760Z,2.28
2022-11-30T10:29:39.592Z,2.00
2022-11-30T10:32:19.843Z,2.67
2022-11-30T10:35:01.929Z,2.28
2022-11-30T10:37:35.412Z,2.63
2022-11-30T10:40:05.766Z,2.60
2022-11-30T10:42:52.451Z,2.70
2022-11-30T10:45:22.800Z,2.75
2022-11-30T10:48:11.591Z,3.15
2022-11-30T10:50:40.480Z,2.63
2022-11-30T10:53:11.764Z,3.42
2022-11-30T10:55:47.940Z,2.80
2022-11-30T10:58:30.293Z,2.42
2022-11-30T11:01:09.996Z,2.90
2022-11-30T11:03:38.194Z,2.72
2022-11-30T11:06:15.479Z,2.78
2022-11-30T11:08:45.649Z,2.38
2022-11-30T11:11:34.562Z,2.20
2022-11-30T11:14:19.951Z,2.20
2022-11-30T11:17:17.297Z,2.70
2022-11-30T11:19:46.418Z,2.42
2022-11-30T11:22:17.962Z,3.50
2022-11-30T11:24:46.324Z,3.85
2022-11-30T11:27:44.849Z,3.15
2022-11-30T11:30:38.705Z,2.80
2022-11-30T11:33:12.704Z,2.70
2022-11-30T11:35:52.566Z,3.40
2022-11-30T11:38:28.853Z,2.92
2022-11-30T11:41:06.007Z,3.38
2022-11-30T11:43:40.888Z,3.25
2022-11-30T11:46:14.674Z,2.92
2022-11-30T11:48:56.042Z,3.75
2022-11-30T11:51:34.620Z,3.30
2022-11-30T11:54:10.874Z,3.15
2022-11-30T11:56:38.453Z,3.40
2022-11-30T11:59:21.980Z,3.72
2022-11-30T12:02:12.502Z,4.80
2022-11-30T12:04:48.418Z,4.07
2022-11-30T12:07:41.657Z,5.13
2022-11-30T12:10:49.805Z,4.45
2022-11-30T12:13:17.845Z,4.95
2022-11-30T12:16:08.818Z,6.32
2022-11-30T12:19:14.579Z,5.47
2022-11-30T12:22:06.940Z,3.78
2022-11-30T12:25:06.181Z,3.08
2022-11-30T12:27:53.572Z,3.22
2022-11-30T12:30:45.167Z,3.08
2022-11-30T12:33:33.707Z,4.22
2022-11-30T12:36:13.330Z,3.08
2022-11-30T12:38:52.500Z,5.03
2022-11-30T12:41:38.010Z,3.22
2022-11-30T12:44:33.420Z,3.53
2022-11-30T12:47:02.703Z,2.70
2022-11-30T12:49:51.680Z,3.65
2022-11-30T12:52:54.253Z,4.25
2022-11-30T12:55:40.381Z,3.42
2022-11-30T12:58:25.831Z,3.20
2022-11-30T13:01:26.925Z,6.15
2022-11-30T13:04:07.886Z,4.40
2022-11-30T13:06:44.070Z,3.38
2022-11-30T13:09:21.919Z,3.67
2022-11-30T13:11:56.767Z,2.58
2022-11-30T13:14:26.685Z,4.18
2022-11-30T13:17:02.991Z,5.25
2022-11-30T13:19:39.665Z,3.75
2022-11-30T13:22:15.038Z,3.20
2022-11-30T13:24:49.898Z,3.35
2022-11-30T13:27:22.970Z,2.67
2022-11-30T13:29:59.242Z,3.05
2022-11-30T13:32:56.712Z,3.15
2022-11-30T13:35:29.757Z,4.80
2022-11-30T13:38:35.673Z,3.38
2022-11-30T13:41:06.552Z,2.60
2022-11-30T13:43:44.286Z,2.50
2022-11-30T13:46:24.062Z,3.10
2022-11-30T13:49:20.352Z,3.00
2022-11-30T13:52:01.380Z,2.88
2022-11-30T13:54:54.602Z,3.13
2022-11-30T13:57:24.957Z,2.25
2022-11-30T13:59:57.892Z,2.95
2022-11-30T14:05:37.994Z,2.40
2022-11-30T14:08:10.360Z,4.82
2022-11-30T14:10:41.762Z,3.25
2022-11-30T14:13:13.354Z,4.38
2022-11-30T14:15:42.395Z,3.75
2022-11-30T14:18:09.459Z,5.32
2022-11-30T14:20:56.214Z,4.38
2022-11-30T14:23:39.159Z,4.10
2022-11-30T14:26:13.532Z,3.30
2022-11-30T14:28:44.465Z,4.28
2022-11-30T14:31:18.861Z,4.38
2022-11-30T14:34:01.061Z,3.35
2022-11-30T14:36:35.878Z,4.60
2022-11-30T14:39:03.743Z,3.00
2022-11-30T14:41:31.765Z,3.92
2022-11-30T14:44:25.373Z,4.72
2022-11-30T14:46:52.901Z,5.18
2022-11-30T14:49:23.378Z,5.07
2022-11-30T14:51:54.538Z,4.50
2022-11-30T14:54:42.666Z,3.88
2022-11-30T14:57:29.695Z,3.75
2022-11-30T14:59:57.398Z,4.72
2022-11-30T15:02:24.623Z,5.43
2022-11-30T15:04:53.778Z,3.10
2022-11-30T15:07:22.649Z,6.28
2022-11-30T15:10:03.212Z,5.80
2022-11-30T15:12:30.779Z,3.90
2022-11-30T15:15:55.382Z,4.18
2022-11-30T15:18:25.981Z,5.57
2022-11-30T15:21:00.103Z,3.45
2022-11-30T15:23:27.703Z,4.03
2022-11-30T15:26:15.493Z,4.28
2022-11-30T15:28:47.046Z,3.35
2022-11-30T15:31:16.958Z,3.17
2022-11-30T15:33:47.202Z,5.03
2022-11-30T15:39:06.554Z,4.97
2022-11-30T15:41:36.187Z,5.18
2022-11-30T15:44:03.537Z,4.47
2022-11-30T15:46:46.530Z,3.63
2022-11-30T15:49:32.148Z,5.55
2022-11-30T15:52:02.418Z,4.05
2022-11-30T15:54:58.956Z,5.95
2022-11-30T15:57:27.984Z,4.82
2022-11-30T16:00:29.565Z,4.72
2022-11-30T16:03:11.158Z,3.83
2022-11-30T16:05:40.236Z,3.50
2022-11-30T16:08:18.716Z,3.83
2022-11-30T16:10:46.016Z,3.75
2022-11-30T16:13:15.279Z,5.10
2022-11-30T16:15:47.767Z,5.00
2022-11-30T16:18:22.374Z,4.65
2022-11-30T16:21:01.189Z,4.95
2022-11-30T16:23:29.832Z,2.92
2022-11-30T16:25:57.126Z,3.72
2022-11-30T16:28:24.296Z,3.63
2022-11-30T16:30:54.193Z,4.57
2022-11-30T16:33:24.663Z,3.83
2022-11-30T16:35:56.512Z,4.22
2022-11-30T16:38:25.191Z,5.28
2022-11-30T16:40:54.236Z,4.63
2022-11-30T16:43:22.830Z,4.00
2022-11-30T16:45:51.088Z,4.55
2022-11-30T16:48:18.672Z,3.70
2022-11-30T16:50:46.029Z,3.67
2022-11-30T16:53:17.019Z,4.75
2022-11-30T16:55:44.651Z,4.85
2022-11-30T16:58:11.961Z,3.90
2022-11-30T17:00:41.080Z,4.05
2022-11-30T17:03:28.346Z,3.85
2022-11-30T17:05:55.652Z,4.57
2022-11-30T17:08:22.829Z,3.65
2022-11-30T17:10:52.449Z,4.22
2022-11-30T17:13:19.704Z,6.15
2022-11-30T17:15:47.295Z,4.50
2022-11-30T17:18:14.530Z,6.25
2022-11-30T17:20:41.781Z,5.65
2022-11-30T17:23:09.177Z,3.80
2022-11-30T17:25:36.381Z,3.75
2022-11-30T17:28:03.771Z,4.18
2022-11-30T17:30:31.097Z,3.85
2022-11-30T17:32:58.344Z,3.90
2022-11-30T17:35:25.644Z,6.13
2022-11-30T17:37:54.489Z,3.67
2022-11-30T17:40:21.913Z,4.72
2022-11-30T17:42:49.666Z,8.25
2022-11-30T17:45:17.305Z,6.05
2022-11-30T17:47:44.534Z,8.38
2022-11-30T17:50:12.904Z,6.68
2022-11-30T17:52:40.186Z,5.40
2022-11-30T17:55:08.506Z,6.38
2022-11-30T17:57:37.319Z,3.70
2022-11-30T18:00:06.061Z,5.53
2022-11-30T18:02:34.013Z,5.30
2022-11-30T18:05:01.346Z,4.38
2022-11-30T18:07:28.834Z,6.53
2022-11-30T18:09:56.513Z,7.15
2022-11-30T18:12:23.847Z,4.50
2022-11-30T18:14:53.489Z,6.10
2022-11-30T18:17:20.855Z,6.38
2022-11-30T18:19:48.243Z,5.10
2022-11-30T18:22:15.414Z,4.57
2022-11-30T18:24:43.612Z,4.40
2022-11-30T18:27:10.923Z,5.78
2022-11-30T18:29:38.314Z,4.90
2022-11-30T18:32:05.858Z,4.43
2022-11-30T18:34:33.420Z,8.18
2022-11-30T18:37:00.734Z,3.63
2022-11-30T18:39:28.019Z,6.22
2022-11-30T18:41:55.469Z,7.07
2022-11-30T18:44:23.452Z,5.00
2022-11-30T18:46:50.927Z,3.47
2022-11-30T18:49:20.969Z,4.25
2022-11-30T18:51:48.467Z,4.22
2022-11-30T18:54:15.734Z,3.33
2022-11-30T18:56:43.136Z,3.65
2022-11-30T18:59:15.537Z,6.25
2022-11-30T19:01:43.041Z,4.78
2022-11-30T19:04:11.587Z,5.03
2022-11-30T19:06:40.611Z,3.88
2022-11-30T19:09:11.431Z,5.43
2022-11-30T19:11:39.961Z,4.32
2022-11-30T19:14:07.759Z,5.85
2022-11-30T19:16:35.792Z,5.22
2022-11-30T19:19:07.320Z,4.63
2022-11-30T19:21:35.605Z,3.47
2022-11-30T19:24:03.642Z,6.47
2022-11-30T19:26:31.198Z,6.18
2022-11-30T19:28:58.643Z,7.22
2022-11-30T19:31:26.506Z,3.92
2022-11-30T19:33:55.604Z,6.93
2022-11-30T19:36:29.084Z,7.18
2022-11-30T19:38:58.328Z,4.45
2022-11-30T19:41:25.957Z,3.33
2022-11-30T19:44:03.206Z,3.50
2022-11-30T19:46:33.015Z,3.60
2022-11-30T19:49:01.726Z,4.85
2022-11-30T19:51:30.514Z,3.85
2022-11-30T19:54:01.169Z,3.45
2022-11-30T19:56:31.524Z,5.57
2022-11-30T19:59:04.478Z,5.68
2022-11-30T20:01:33.947Z,5.47
2022-11-30T20:04:01.360Z,4.45
2022-11-30T20:06:31.644Z,5.53
2022-11-30T20:08:58.973Z,4.18
2022-11-30T20:11:26.258Z,3.83
2022-11-30T20:13:54.007Z,4.43
2022-11-30T20:16:22.920Z,3.97
2022-11-30T20:19:00.879Z,5.10
2022-11-30T20:21:30.905Z,5.55
2022-11-30T20:24:01.624Z,4.38
2022-11-30T20:26:32.014Z,4.35
2022-11-30T20:29:01.973Z,4.93
2022-11-30T20:31:31.213Z,6.70
2022-11-30T20:33:58.871Z,5.20
2022-11-30T20:36:26.166Z,4.78
2022-11-30T20:38:53.344Z,4.43
2022-11-30T20:41:23.377Z,4.90
2022-11-30T20:43:51.363Z,4.82
2022-11-30T20:46:24.718Z,3.92
2022-11-30T20:48:52.585Z,3.60
2022-11-30T20:51:33.224Z,4.32
2022-11-30T20:54:04.137Z,3.15
2022-11-30T20:56:32.605Z,3.42
2022-11-30T20:59:06.329Z,3.53
2022-11-30T21:01:34.005Z,3.38
2022-11-30T21:04:01.656Z,3.75
2022-11-30T21:06:32.341Z,3.80
2022-11-30T21:09:00.471Z,2.83
2022-11-30T21:11:28.845Z,3.80
2022-11-30T21:13:57.272Z,3.65
2022-11-30T21:16:28.603Z,2.88
2022-11-30T21:18:58.406Z,2.63
2022-11-30T21:21:28.084Z,2.50
2022-11-30T21:23:57.013Z,2.95
2022-11-30T21:26:26.522Z,2.38
2022-11-30T21:28:58.863Z,2.53
2022-11-30T21:31:26.471Z,2.92
2022-11-30T21:33:54.091Z,2.92
2022-11-30T21:36:22.761Z,2.65
2022-11-30T21:39:04.627Z,2.97
2022-11-30T21:41:36.690Z,3.35
2022-11-30T21:44:05.711Z,4.13
2022-11-30T21:46:33.371Z,3.38
2022-11-30T21:49:01.267Z,2.22
2022-11-30T21:51:30.034Z,3.60
2022-11-30T21:53:59.898Z,2.60
2022-11-30T21:56:29.882Z,3.42
2022-11-30T21:58:57.882Z,4.82
2022-11-30T22:01:31.180Z,3.05
2022-11-30T22:03:59.610Z,3.50
2022-11-30T22:06:28.848Z,3.03
2022-11-30T22:09:08.004Z,2.22
2022-11-30T22:11:39.084Z,2.20
2022-11-30T22:14:08.008Z,3.63
2022-11-30T22:16:36.454Z,2.00
2022-11-30T22:19:07.074Z,2.47
2022-11-30T22:21:35.644Z,2.58
2022-11-30T22:24:05.913Z,1.90
2022-11-30T22:26:36.230Z,2.42
2022-11-30T22:29:28.801Z,2.90
2022-11-30T22:31:56.120Z,2.58
2022-11-30T22:34:23.323Z,2.88
2022-11-30T22:36:50.550Z,1.98
2022-11-30T22:39:20.338Z,2.55
2022-11-30T22:41:54.642Z,2.78
2022-11-30T22:44:22.432Z,1.80
2022-11-30T22:46:49.707Z,1.98
2022-11-30T22:49:21.163Z,2.20
2022-11-30T22:51:49.986Z,1.58
2022-11-30T22:54:18.103Z,1.77
2022-11-30T22:56:46.701Z,2.42
2022-11-30T22:59:14.872Z,2.13
2022-11-30T23:01:50.303Z,1.92
2022-11-30T23:04:20.310Z,2.13
2022-11-30T23:06:49.015Z,2.38
2022-11-30T23:09:20.074Z,2.13
2022-11-30T23:11:47.575Z,1.77
2022-11-30T23:14:16.496Z,1.83
2022-11-30T23:16:44.755Z,2.60
2022-11-30T23:19:13.113Z,1.48
2022-11-30T23:21:45.075Z,1.92
2022-11-30T23:24:18.113Z,1.35
2022-11-30T23:26:45.625Z,1.50
2022-11-30T23:29:15.331Z,1.80
2022-11-30T23:31:44.203Z,1.30
2022-11-30T23:34:22.524Z,1.58
2022-11-30T23:36:50.816Z,1.60
2022-11-30T23:39:19.810Z,1.55
2022-11-30T23:41:47.123Z,1.48
2022-11-30T23:44:14.370Z,1.35
2022-11-30T23:46:41.722Z,1.30
2022-11-30T23:49:09.201Z,1.00
2022-11-30T23:51:36.782Z,1.50
2022-11-30T23:54:04.629Z,1.80
2022-11-30T23:56:31.894Z,1.38
2022-11-30T23:58:59.045Z,1.45
